sensor_id;sensor_type;location;lat;lon;timestamp;P1;durP1;ratioP1;P2;durP2;ratioP2
32236;SDS011;18726;44.732;10.550;2023-05-10T00:02:03;12.73;;;11.55;;
32236;SDS011;18726;44.732;10.550;2023-05-10T00:05:07;13.77;;;12.52;;
32236;SDS011;18726;44.732;10.550;2023-05-10T00:08:11;19.50;;;13.48;;
32236;SDS011;18726;44.732;10.550;2023-05-10T00:11:15;15.10;;;13.52;;
32236;SDS011;18726;44.732;10.550;2023-05-10T00:14:18;17.35;;;13.52;;
32236;SDS011;18726;44.732;10.550;2023-05-10T00:17:22;14.57;;;13.15;;
32236;SDS011;18726;44.732;10.550;2023-05-10T00:20:26;14.27;;;12.77;;
32236;SDS011;18726;44.732;10.550;2023-05-10T00:23:29;14.82;;;13.32;;
32236;SDS011;18726;44.732;10.550;2023-05-10T00:26:33;15.25;;;13.65;;
32236;SDS011;18726;44.732;10.550;2023-05-10T00:29:38;17.40;;;13.95;;
32236;SDS011;18726;44.732;10.550;2023-05-10T00:32:41;17.75;;;14.55;;
32236;SDS011;18726;44.732;10.550;2023-05-10T00:35:46;14.32;;;12.50;;
32236;SDS011;18726;44.732;10.550;2023-05-10T00:38:50;13.98;;;12.32;;
32236;SDS011;18726;44.732;10.550;2023-05-10T00:41:54;16.52;;;14.20;;
32236;SDS011;18726;44.732;10.550;2023-05-10T00:44:58;16.60;;;13.48;;
32236;SDS011;18726;44.732;10.550;2023-05-10T00:48:02;16.17;;;13.90;;
32236;SDS011;18726;44.732;10.550;2023-05-10T00:51:06;16.08;;;14.40;;
32236;SDS011;18726;44.732;10.550;2023-05-10T00:54:11;17.13;;;14.98;;
32236;SDS011;18726;44.732;10.550;2023-05-10T00:57:17;18.02;;;16.23;;
32236;SDS011;18726;44.732;10.550;2023-05-10T01:00:21;26.75;;;17.58;;
32236;SDS011;18726;44.732;10.550;2023-05-10T01:03:25;23.33;;;19.17;;
32236;SDS011;18726;44.732;10.550;2023-05-10T01:06:29;25.33;;;21.58;;
32236;SDS011;18726;44.732;10.550;2023-05-10T01:09:32;24.25;;;20.08;;
32236;SDS011;18726;44.732;10.550;2023-05-10T01:12:37;23.90;;;21.42;;
32236;SDS011;18726;44.732;10.550;2023-05-10T01:15:43;25.55;;;22.77;;
32236;SDS011;18726;44.732;10.550;2023-05-10T01:18:48;29.40;;;22.90;;
32236;SDS011;18726;44.732;10.550;2023-05-10T01:21:58;29.92;;;24.80;;
32236;SDS011;18726;44.732;10.550;2023-05-10T01:39:36;26.35;;;21.17;;
32236;SDS011;18726;44.732;10.550;2023-05-10T01:43:01;23.38;;;20.77;;
32236;SDS011;18726;44.732;10.550;2023-05-10T01:46:10;25.15;;;19.20;;
32236;SDS011;18726;44.732;10.550;2023-05-10T01:49:25;25.30;;;19.65;;
32236;SDS011;18726;44.732;10.550;2023-05-10T01:52:41;26.65;;;20.38;;
32236;SDS011;18726;44.732;10.550;2023-05-10T01:55:52;22.80;;;19.88;;
32236;SDS011;18726;44.732;10.550;2023-05-10T01:58:57;23.90;;;19.00;;
32236;SDS011;18726;44.732;10.550;2023-05-10T02:02:03;22.77;;;19.88;;
32236;SDS011;18726;44.732;10.550;2023-05-10T02:05:08;22.85;;;17.85;;
32236;SDS011;18726;44.732;10.550;2023-05-10T02:08:15;25.98;;;18.95;;
32236;SDS011;18726;44.732;10.550;2023-05-10T02:11:20;24.45;;;18.83;;
32236;SDS011;18726;44.732;10.550;2023-05-10T02:14:25;20.98;;;18.85;;
32236;SDS011;18726;44.732;10.550;2023-05-10T02:17:30;27.48;;;18.15;;
32236;SDS011;18726;44.732;10.550;2023-05-10T02:20:35;20.52;;;18.02;;
32236;SDS011;18726;44.732;10.550;2023-05-10T02:23:40;22.00;;;17.27;;
32236;SDS011;18726;44.732;10.550;2023-05-10T02:26:46;20.80;;;17.02;;
32236;SDS011;18726;44.732;10.550;2023-05-10T02:29:52;20.40;;;18.10;;
32236;SDS011;18726;44.732;10.550;2023-05-10T02:32:56;19.50;;;17.23;;
32236;SDS011;18726;44.732;10.550;2023-05-10T02:36:02;17.40;;;15.43;;
32236;SDS011;18726;44.732;10.550;2023-05-10T02:39:06;19.42;;;16.25;;
32236;SDS011;18726;44.732;10.550;2023-05-10T02:42:17;18.00;;;16.10;;
32236;SDS011;18726;44.732;10.550;2023-05-10T02:45:23;15.75;;;14.00;;
32236;SDS011;18726;44.732;10.550;2023-05-10T02:48:31;15.68;;;13.98;;
32236;SDS011;18726;44.732;10.550;2023-05-10T02:51:35;17.73;;;15.02;;
32236;SDS011;18726;44.732;10.550;2023-05-10T02:54:44;16.42;;;14.70;;
32236;SDS011;18726;44.732;10.550;2023-05-10T02:57:51;18.55;;;14.55;;
32236;SDS011;18726;44.732;10.550;2023-05-10T03:00:59;14.98;;;13.48;;
32236;SDS011;18726;44.732;10.550;2023-05-10T03:04:03;16.35;;;13.45;;
32236;SDS011;18726;44.732;10.550;2023-05-10T03:07:08;16.98;;;15.18;;
32236;SDS011;18726;44.732;10.550;2023-05-10T03:10:12;18.13;;;14.95;;
32236;SDS011;18726;44.732;10.550;2023-05-10T03:16:40;18.98;;;15.63;;
32236;SDS011;18726;44.732;10.550;2023-05-10T03:19:53;16.25;;;14.60;;
32236;SDS011;18726;44.732;10.550;2023-05-10T03:23:13;23.13;;;15.52;;
32236;SDS011;18726;44.732;10.550;2023-05-10T03:26:24;16.25;;;14.55;;
32236;SDS011;18726;44.732;10.550;2023-05-10T03:29:36;15.10;;;13.68;;
32236;SDS011;18726;44.732;10.550;2023-05-10T03:32:41;18.30;;;14.90;;
32236;SDS011;18726;44.732;10.550;2023-05-10T03:35:45;15.48;;;13.95;;
32236;SDS011;18726;44.732;10.550;2023-05-10T03:38:49;15.73;;;14.23;;
32236;SDS011;18726;44.732;10.550;2023-05-10T03:41:53;16.65;;;15.05;;
32236;SDS011;18726;44.732;10.550;2023-05-10T03:44:57;15.32;;;13.75;;
32236;SDS011;18726;44.732;10.550;2023-05-10T03:48:02;16.17;;;13.73;;
32236;SDS011;18726;44.732;10.550;2023-05-10T03:51:06;15.25;;;13.65;;
32236;SDS011;18726;44.732;10.550;2023-05-10T03:54:10;15.70;;;13.98;;
32236;SDS011;18726;44.732;10.550;2023-05-10T03:57:13;16.40;;;14.57;;
32236;SDS011;18726;44.732;10.550;2023-05-10T04:00:17;18.80;;;15.40;;
32236;SDS011;18726;44.732;10.550;2023-05-10T04:03:21;19.77;;;17.48;;
32236;SDS011;18726;44.732;10.550;2023-05-10T04:06:25;16.90;;;14.85;;
32236;SDS011;18726;44.732;10.550;2023-05-10T04:09:29;17.20;;;15.45;;
32236;SDS011;18726;44.732;10.550;2023-05-10T04:12:32;18.42;;;13.73;;
32236;SDS011;18726;44.732;10.550;2023-05-10T04:15:35;14.55;;;13.10;;
32236;SDS011;18726;44.732;10.550;2023-05-10T04:18:39;14.93;;;13.48;;
32236;SDS011;18726;44.732;10.550;2023-05-10T04:21:43;17.20;;;13.32;;
32236;SDS011;18726;44.732;10.550;2023-05-10T04:24:46;15.55;;;14.02;;
32236;SDS011;18726;44.732;10.550;2023-05-10T04:27:50;16.50;;;14.30;;
32236;SDS011;18726;44.732;10.550;2023-05-10T04:31:04;19.52;;;14.18;;
32236;SDS011;18726;44.732;10.550;2023-05-10T04:34:09;15.13;;;13.68;;
32236;SDS011;18726;44.732;10.550;2023-05-10T04:37:12;18.02;;;14.63;;
32236;SDS011;18726;44.732;10.550;2023-05-10T04:40:15;16.45;;;14.20;;
32236;SDS011;18726;44.732;10.550;2023-05-10T04:43:19;17.38;;;15.18;;
32236;SDS011;18726;44.732;10.550;2023-05-10T04:46:24;19.60;;;15.45;;
32236;SDS011;18726;44.732;10.550;2023-05-10T04:49:28;20.77;;;16.83;;
32236;SDS011;18726;44.732;10.550;2023-05-10T04:52:33;22.42;;;16.90;;
32236;SDS011;18726;44.732;10.550;2023-05-10T04:55:36;22.08;;;16.58;;
32236;SDS011;18726;44.732;10.550;2023-05-10T04:58:40;18.40;;;16.45;;
32236;SDS011;18726;44.732;10.550;2023-05-10T05:01:43;19.60;;;17.55;;
32236;SDS011;18726;44.732;10.550;2023-05-10T05:04:47;23.35;;;20.55;;
32236;SDS011;18726;44.732;10.550;2023-05-10T05:07:50;25.15;;;22.33;;
32236;SDS011;18726;44.732;10.550;2023-05-10T05:10:54;25.08;;;22.55;;
32236;SDS011;18726;44.732;10.550;2023-05-10T05:13:58;25.65;;;20.98;;
32236;SDS011;18726;44.732;10.550;2023-05-10T05:17:02;29.23;;;24.08;;
32236;SDS011;18726;44.732;10.550;2023-05-10T05:20:05;24.08;;;21.33;;
32236;SDS011;18726;44.732;10.550;2023-05-10T05:23:09;21.35;;;18.33;;
32236;SDS011;18726;44.732;10.550;2023-05-10T05:26:13;19.10;;;17.30;;
32236;SDS011;18726;44.732;10.550;2023-05-10T05:29:18;18.55;;;16.13;;
32236;SDS011;18726;44.732;10.550;2023-05-10T05:32:21;20.77;;;18.67;;
32236;SDS011;18726;44.732;10.550;2023-05-10T05:35:26;17.48;;;15.73;;
32236;SDS011;18726;44.732;10.550;2023-05-10T05:38:30;17.17;;;15.38;;
32236;SDS011;18726;44.732;10.550;2023-05-10T05:41:34;17.55;;;15.23;;
32236;SDS011;18726;44.732;10.550;2023-05-10T05:44:38;21.23;;;18.92;;
32236;SDS011;18726;44.732;10.550;2023-05-10T05:47:42;21.00;;;18.60;;
32236;SDS011;18726;44.732;10.550;2023-05-10T05:50:45;18.55;;;16.85;;
32236;SDS011;18726;44.732;10.550;2023-05-10T05:53:49;14.95;;;13.45;;
32236;SDS011;18726;44.732;10.550;2023-05-10T05:56:56;15.05;;;13.25;;
32236;SDS011;18726;44.732;10.550;2023-05-10T06:00:01;16.25;;;13.43;;
32236;SDS011;18726;44.732;10.550;2023-05-10T06:03:16;14.18;;;12.68;;
32236;SDS011;18726;44.732;10.550;2023-05-10T06:06:19;15.57;;;14.07;;
32236;SDS011;18726;44.732;10.550;2023-05-10T06:09:22;13.70;;;12.38;;
32236;SDS011;18726;44.732;10.550;2023-05-10T06:12:27;24.80;;;11.68;;
32236;SDS011;18726;44.732;10.550;2023-05-10T06:15:31;13.63;;;12.25;;
32236;SDS011;18726;44.732;10.550;2023-05-10T06:18:35;13.63;;;11.98;;
32236;SDS011;18726;44.732;10.550;2023-05-10T06:21:39;15.20;;;10.75;;
32236;SDS011;18726;44.732;10.550;2023-05-10T06:24:42;11.05;;;10.05;;
32236;SDS011;18726;44.732;10.550;2023-05-10T06:27:46;13.73;;;12.27;;
32236;SDS011;18726;44.732;10.550;2023-05-10T06:30:50;12.57;;;11.35;;
32236;SDS011;18726;44.732;10.550;2023-05-10T06:33:53;12.77;;;11.52;;
32236;SDS011;18726;44.732;10.550;2023-05-10T06:36:57;12.52;;;11.32;;
32236;SDS011;18726;44.732;10.550;2023-05-10T06:40:00;16.33;;;14.65;;
32236;SDS011;18726;44.732;10.550;2023-05-10T06:43:05;19.23;;;17.25;;
32236;SDS011;18726;44.732;10.550;2023-05-10T06:46:09;18.25;;;16.40;;
32236;SDS011;18726;44.732;10.550;2023-05-10T06:49:13;18.38;;;16.35;;
32236;SDS011;18726;44.732;10.550;2023-05-10T06:52:16;18.40;;;16.08;;
32236;SDS011;18726;44.732;10.550;2023-05-10T06:55:19;18.05;;;16.17;;
32236;SDS011;18726;44.732;10.550;2023-05-10T06:58:23;17.45;;;15.65;;
32236;SDS011;18726;44.732;10.550;2023-05-10T07:01:27;19.92;;;16.30;;
32236;SDS011;18726;44.732;10.550;2023-05-10T07:04:30;17.65;;;15.80;;
32236;SDS011;18726;44.732;10.550;2023-05-10T07:07:35;16.80;;;15.10;;
32236;SDS011;18726;44.732;10.550;2023-05-10T07:10:39;17.65;;;15.77;;
32236;SDS011;18726;44.732;10.550;2023-05-10T07:13:42;18.58;;;14.75;;
32236;SDS011;18726;44.732;10.550;2023-05-10T07:16:47;18.05;;;16.25;;
32236;SDS011;18726;44.732;10.550;2023-05-10T07:19:50;18.25;;;15.27;;
32236;SDS011;18726;44.732;10.550;2023-05-10T07:22:54;16.17;;;14.57;;
32236;SDS011;18726;44.732;10.550;2023-05-10T07:25:58;15.63;;;14.05;;
32236;SDS011;18726;44.732;10.550;2023-05-10T07:29:02;15.50;;;14.00;;
32236;SDS011;18726;44.732;10.550;2023-05-10T07:32:05;19.52;;;16.33;;
32236;SDS011;18726;44.732;10.550;2023-05-10T07:35:09;15.73;;;14.05;;
32236;SDS011;18726;44.732;10.550;2023-05-10T07:38:13;15.90;;;13.63;;
32236;SDS011;18726;44.732;10.550;2023-05-10T07:41:17;13.77;;;12.48;;
32236;SDS011;18726;44.732;10.550;2023-05-10T07:44:20;14.05;;;12.68;;
32236;SDS011;18726;44.732;10.550;2023-05-10T07:47:24;15.80;;;13.85;;
32236;SDS011;18726;44.732;10.550;2023-05-10T07:50:28;15.05;;;13.35;;
32236;SDS011;18726;44.732;10.550;2023-05-10T07:53:32;13.75;;;12.45;;
32236;SDS011;18726;44.732;10.550;2023-05-10T07:56:35;13.30;;;12.02;;
32236;SDS011;18726;44.732;10.550;2023-05-10T07:59:39;14.40;;;12.35;;
32236;SDS011;18726;44.732;10.550;2023-05-10T08:02:43;15.10;;;13.50;;
32236;SDS011;18726;44.732;10.550;2023-05-10T08:05:47;17.23;;;13.52;;
32236;SDS011;18726;44.732;10.550;2023-05-10T08:08:51;14.45;;;12.68;;
32236;SDS011;18726;44.732;10.550;2023-05-10T08:11:56;13.25;;;11.95;;
32236;SDS011;18726;44.732;10.550;2023-05-10T08:15:01;13.75;;;12.30;;
32236;SDS011;18726;44.732;10.550;2023-05-10T08:18:06;13.07;;;11.82;;
32236;SDS011;18726;44.732;10.550;2023-05-10T08:21:09;14.65;;;12.15;;
32236;SDS011;18726;44.732;10.550;2023-05-10T08:24:14;13.48;;;12.05;;
32236;SDS011;18726;44.732;10.550;2023-05-10T08:27:18;13.75;;;11.05;;
32236;SDS011;18726;44.732;10.550;2023-05-10T08:30:21;12.52;;;11.23;;
32236;SDS011;18726;44.732;10.550;2023-05-10T08:33:25;12.38;;;10.38;;
32236;SDS011;18726;44.732;10.550;2023-05-10T08:36:29;11.73;;;10.63;;
32236;SDS011;18726;44.732;10.550;2023-05-10T08:39:36;14.50;;;10.30;;
32236;SDS011;18726;44.732;10.550;2023-05-10T08:42:40;12.18;;;9.98;;
32236;SDS011;18726;44.732;10.550;2023-05-10T08:45:50;12.65;;;10.88;;
32236;SDS011;18726;44.732;10.550;2023-05-10T08:48:57;11.40;;;9.90;;
32236;SDS011;18726;44.732;10.550;2023-05-10T08:52:04;10.20;;;9.30;;
32236;SDS011;18726;44.732;10.550;2023-05-10T08:55:10;10.98;;;9.88;;
32236;SDS011;18726;44.732;10.550;2023-05-10T08:58:14;12.57;;;9.93;;
32236;SDS011;18726;44.732;10.550;2023-05-10T09:01:18;10.38;;;9.38;;
32236;SDS011;18726;44.732;10.550;2023-05-10T09:04:23;14.88;;;9.80;;
32236;SDS011;18726;44.732;10.550;2023-05-10T09:07:27;13.25;;;9.23;;
32236;SDS011;18726;44.732;10.550;2023-05-10T09:10:31;10.88;;;9.88;;
32236;SDS011;18726;44.732;10.550;2023-05-10T09:13:35;9.65;;;8.70;;
32236;SDS011;18726;44.732;10.550;2023-05-10T09:16:40;11.43;;;10.32;;
32236;SDS011;18726;44.732;10.550;2023-05-10T09:19:44;10.43;;;9.18;;
32236;SDS011;18726;44.732;10.550;2023-05-10T09:22:48;10.20;;;8.88;;
32236;SDS011;18726;44.732;10.550;2023-05-10T09:26:02;9.88;;;8.88;;
32236;SDS011;18726;44.732;10.550;2023-05-10T09:29:08;10.60;;;9.60;;
32236;SDS011;18726;44.732;10.550;2023-05-10T09:35:53;11.18;;;9.48;;
32236;SDS011;18726;44.732;10.550;2023-05-10T09:38:57;10.95;;;9.93;;
32236;SDS011;18726;44.732;10.550;2023-05-10T09:42:03;9.73;;;8.93;;
32236;SDS011;18726;44.732;10.550;2023-05-10T09:45:08;10.70;;;9.38;;
32236;SDS011;18726;44.732;10.550;2023-05-10T09:48:12;9.77;;;8.88;;
32236;SDS011;18726;44.732;10.550;2023-05-10T09:51:22;10.38;;;9.32;;
32236;SDS011;18726;44.732;10.550;2023-05-10T09:54:26;11.25;;;9.50;;
32236;SDS011;18726;44.732;10.550;2023-05-10T09:57:30;10.10;;;9.10;;
32236;SDS011;18726;44.732;10.550;2023-05-10T10:00:37;9.55;;;8.55;;
32236;SDS011;18726;44.732;10.550;2023-05-10T10:03:45;10.77;;;9.68;;
32236;SDS011;18726;44.732;10.550;2023-05-10T10:06:57;9.10;;;8.23;;
32236;SDS011;18726;44.732;10.550;2023-05-10T10:10:02;10.45;;;9.45;;
32236;SDS011;18726;44.732;10.550;2023-05-10T10:13:08;8.93;;;8.10;;
32236;SDS011;18726;44.732;10.550;2023-05-10T10:16:11;10.00;;;9.10;;
32236;SDS011;18726;44.732;10.550;2023-05-10T10:19:15;10.32;;;9.35;;
32236;SDS011;18726;44.732;10.550;2023-05-10T10:22:19;15.25;;;9.90;;
32236;SDS011;18726;44.732;10.550;2023-05-10T10:25:22;9.23;;;7.93;;
32236;SDS011;18726;44.732;10.550;2023-05-10T10:28:29;10.07;;;8.60;;
32236;SDS011;18726;44.732;10.550;2023-05-10T10:31:40;9.18;;;8.10;;
32236;SDS011;18726;44.732;10.550;2023-05-10T10:34:49;9.68;;;8.18;;
32236;SDS011;18726;44.732;10.550;2023-05-10T10:37:53;10.15;;;9.15;;
32236;SDS011;18726;44.732;10.550;2023-05-10T10:41:10;9.55;;;8.57;;
32236;SDS011;18726;44.732;10.550;2023-05-10T10:47:41;11.40;;;8.75;;
32236;SDS011;18726;44.732;10.550;2023-05-10T10:50:45;10.30;;;9.05;;
32236;SDS011;18726;44.732;10.550;2023-05-10T10:53:52;9.52;;;8.55;;
32236;SDS011;18726;44.732;10.550;2023-05-10T10:57:13;8.80;;;8.00;;
32236;SDS011;18726;44.732;10.550;2023-05-10T11:03:21;9.32;;;8.43;;
32236;SDS011;18726;44.732;10.550;2023-05-10T11:06:33;8.52;;;7.75;;
32236;SDS011;18726;44.732;10.550;2023-05-10T11:09:39;8.88;;;7.97;;
32236;SDS011;18726;44.732;10.550;2023-05-10T11:12:59;8.90;;;8.00;;
32236;SDS011;18726;44.732;10.550;2023-05-10T11:16:17;9.30;;;8.40;;
32236;SDS011;18726;44.732;10.550;2023-05-10T11:19:23;9.43;;;8.15;;
32236;SDS011;18726;44.732;10.550;2023-05-10T11:22:31;8.57;;;7.85;;
32236;SDS011;18726;44.732;10.550;2023-05-10T11:25:53;7.97;;;7.28;;
32236;SDS011;18726;44.732;10.550;2023-05-10T11:28:57;7.70;;;6.93;;
32236;SDS011;18726;44.732;10.550;2023-05-10T11:32:04;7.40;;;6.80;;
32236;SDS011;18726;44.732;10.550;2023-05-10T11:35:11;8.00;;;7.20;;
32236;SDS011;18726;44.732;10.550;2023-05-10T11:38:15;11.38;;;7.43;;
32236;SDS011;18726;44.732;10.550;2023-05-10T11:41:19;8.63;;;7.07;;
32236;SDS011;18726;44.732;10.550;2023-05-10T11:44:30;8.20;;;7.40;;
32236;SDS011;18726;44.732;10.550;2023-05-10T11:47:34;10.57;;;7.65;;
32236;SDS011;18726;44.732;10.550;2023-05-10T11:50:40;8.57;;;7.85;;
32236;SDS011;18726;44.732;10.550;2023-05-10T11:53:43;7.38;;;6.68;;
32236;SDS011;18726;44.732;10.550;2023-05-10T11:56:46;7.60;;;6.90;;
32236;SDS011;18726;44.732;10.550;2023-05-10T11:59:53;7.32;;;6.63;;
32236;SDS011;18726;44.732;10.550;2023-05-10T12:02:58;7.57;;;6.88;;
32236;SDS011;18726;44.732;10.550;2023-05-10T12:06:03;7.93;;;7.22;;
32236;SDS011;18726;44.732;10.550;2023-05-10T12:09:07;7.43;;;6.38;;
32236;SDS011;18726;44.732;10.550;2023-05-10T12:12:18;7.65;;;6.95;;
32236;SDS011;18726;44.732;10.550;2023-05-10T12:15:22;7.57;;;6.97;;
32236;SDS011;18726;44.732;10.550;2023-05-10T12:18:27;7.55;;;6.85;;
32236;SDS011;18726;44.732;10.550;2023-05-10T12:21:30;9.38;;;6.95;;
32236;SDS011;18726;44.732;10.550;2023-05-10T12:24:37;7.50;;;6.80;;
32236;SDS011;18726;44.732;10.550;2023-05-10T12:27:47;8.38;;;6.78;;
32236;SDS011;18726;44.732;10.550;2023-05-10T12:30:52;7.38;;;5.97;;
32236;SDS011;18726;44.732;10.550;2023-05-10T12:33:56;7.43;;;6.68;;
32236;SDS011;18726;44.732;10.550;2023-05-10T12:37:00;7.00;;;6.40;;
32236;SDS011;18726;44.732;10.550;2023-05-10T12:40:08;8.88;;;5.95;;
32236;SDS011;18726;44.732;10.550;2023-05-10T12:43:13;8.80;;;6.57;;
32236;SDS011;18726;44.732;10.550;2023-05-10T12:46:17;6.72;;;6.13;;
32236;SDS011;18726;44.732;10.550;2023-05-10T12:49:21;6.72;;;6.13;;
32236;SDS011;18726;44.732;10.550;2023-05-10T12:52:25;6.90;;;6.30;;
32236;SDS011;18726;44.732;10.550;2023-05-10T12:55:28;7.00;;;6.32;;
32236;SDS011;18726;44.732;10.550;2023-05-10T12:58:32;7.35;;;6.35;;
32236;SDS011;18726;44.732;10.550;2023-05-10T13:01:37;8.02;;;7.25;;
32236;SDS011;18726;44.732;10.550;2023-05-10T13:04:41;8.50;;;7.25;;
32236;SDS011;18726;44.732;10.550;2023-05-10T13:07:45;7.90;;;7.20;;
32236;SDS011;18726;44.732;10.550;2023-05-10T13:10:48;7.95;;;7.25;;
32236;SDS011;18726;44.732;10.550;2023-05-10T13:13:52;7.45;;;6.70;;
32236;SDS011;18726;44.732;10.550;2023-05-10T13:16:55;7.80;;;7.07;;
32236;SDS011;18726;44.732;10.550;2023-05-10T13:19:59;7.90;;;7.10;;
32236;SDS011;18726;44.732;10.550;2023-05-10T13:23:03;6.85;;;6.22;;
32236;SDS011;18726;44.732;10.550;2023-05-10T13:26:06;7.75;;;7.05;;
32236;SDS011;18726;44.732;10.550;2023-05-10T13:29:10;6.10;;;5.60;;
32236;SDS011;18726;44.732;10.550;2023-05-10T13:32:13;8.75;;;7.07;;
32236;SDS011;18726;44.732;10.550;2023-05-10T13:35:17;6.50;;;5.82;;
32236;SDS011;18726;44.732;10.550;2023-05-10T13:38:21;7.07;;;6.47;;
32236;SDS011;18726;44.732;10.550;2023-05-10T13:41:25;7.22;;;6.63;;
32236;SDS011;18726;44.732;10.550;2023-05-10T13:44:28;7.35;;;6.60;;
32236;SDS011;18726;44.732;10.550;2023-05-10T13:47:32;7.03;;;6.43;;
32236;SDS011;18726;44.732;10.550;2023-05-10T13:50:36;6.88;;;6.28;;
32236;SDS011;18726;44.732;10.550;2023-05-10T13:53:40;6.53;;;5.93;;
32236;SDS011;18726;44.732;10.550;2023-05-10T13:56:43;7.30;;;6.63;;
32236;SDS011;18726;44.732;10.550;2023-05-10T13:59:47;6.03;;;5.53;;
32236;SDS011;18726;44.732;10.550;2023-05-10T14:02:51;6.10;;;5.60;;
32236;SDS011;18726;44.732;10.550;2023-05-10T14:05:55;8.88;;;6.95;;
32236;SDS011;18726;44.732;10.550;2023-05-10T14:08:59;6.93;;;6.28;;
32236;SDS011;18726;44.732;10.550;2023-05-10T14:12:02;7.00;;;6.40;;
32236;SDS011;18726;44.732;10.550;2023-05-10T14:15:07;6.40;;;5.25;;
32236;SDS011;18726;44.732;10.550;2023-05-10T14:18:13;7.07;;;6.40;;
32236;SDS011;18726;44.732;10.550;2023-05-10T14:21:17;7.88;;;6.07;;
32236;SDS011;18726;44.732;10.550;2023-05-10T14:24:21;7.65;;;6.85;;
32236;SDS011;18726;44.732;10.550;2023-05-10T14:27:24;7.70;;;7.00;;
32236;SDS011;18726;44.732;10.550;2023-05-10T14:30:28;7.20;;;6.60;;
32236;SDS011;18726;44.732;10.550;2023-05-10T14:33:32;7.30;;;6.20;;
32236;SDS011;18726;44.732;10.550;2023-05-10T14:36:36;7.70;;;6.93;;
32236;SDS011;18726;44.732;10.550;2023-05-10T14:39:40;9.93;;;6.90;;
32236;SDS011;18726;44.732;10.550;2023-05-10T14:42:45;7.70;;;7.00;;
32236;SDS011;18726;44.732;10.550;2023-05-10T14:45:48;7.82;;;6.50;;
32236;SDS011;18726;44.732;10.550;2023-05-10T14:48:52;7.40;;;6.80;;
32236;SDS011;18726;44.732;10.550;2023-05-10T14:51:56;7.38;;;6.65;;
32236;SDS011;18726;44.732;10.550;2023-05-10T14:55:00;7.10;;;6.50;;
32236;SDS011;18726;44.732;10.550;2023-05-10T14:58:04;8.55;;;7.80;;
32236;SDS011;18726;44.732;10.550;2023-05-10T15:01:08;7.07;;;6.43;;
32236;SDS011;18726;44.732;10.550;2023-05-10T15:04:11;7.60;;;6.35;;
32236;SDS011;18726;44.732;10.550;2023-05-10T15:07:16;7.57;;;6.97;;
32236;SDS011;18726;44.732;10.550;2023-05-10T15:10:21;7.55;;;6.85;;
32236;SDS011;18726;44.732;10.550;2023-05-10T15:13:25;9.00;;;7.22;;
32236;SDS011;18726;44.732;10.550;2023-05-10T15:16:29;8.13;;;7.43;;
32236;SDS011;18726;44.732;10.550;2023-05-10T15:19:32;8.13;;;6.90;;
32236;SDS011;18726;44.732;10.550;2023-05-10T15:22:36;8.15;;;7.35;;
32236;SDS011;18726;44.732;10.550;2023-05-10T15:25:40;8.73;;;7.93;;
32236;SDS011;18726;44.732;10.550;2023-05-10T15:28:44;7.57;;;6.88;;
32236;SDS011;18726;44.732;10.550;2023-05-10T15:31:48;8.40;;;7.50;;
32236;SDS011;18726;44.732;10.550;2023-05-10T15:34:53;8.10;;;6.70;;
32236;SDS011;18726;44.732;10.550;2023-05-10T15:37:57;8.05;;;7.25;;
32236;SDS011;18726;44.732;10.550;2023-05-10T15:41:00;8.50;;;7.70;;
32236;SDS011;18726;44.732;10.550;2023-05-10T15:44:04;8.10;;;7.32;;
32236;SDS011;18726;44.732;10.550;2023-05-10T15:47:08;8.68;;;6.63;;
32236;SDS011;18726;44.732;10.550;2023-05-10T15:50:11;8.07;;;7.28;;
32236;SDS011;18726;44.732;10.550;2023-05-10T15:53:14;9.02;;;8.23;;
32236;SDS011;18726;44.732;10.550;2023-05-10T15:56:18;11.13;;;7.95;;
32236;SDS011;18726;44.732;10.550;2023-05-10T15:59:22;11.25;;;9.52;;
32236;SDS011;18726;44.732;10.550;2023-05-10T16:02:25;9.35;;;8.45;;
32236;SDS011;18726;44.732;10.550;2023-05-10T16:05:29;11.38;;;8.35;;
32236;SDS011;18726;44.732;10.550;2023-05-10T16:08:35;11.15;;;9.07;;
32236;SDS011;18726;44.732;10.550;2023-05-10T16:11:43;10.30;;;9.15;;
32236;SDS011;18726;44.732;10.550;2023-05-10T16:14:47;8.85;;;7.95;;
32236;SDS011;18726;44.732;10.550;2023-05-10T16:17:50;9.45;;;8.55;;
32236;SDS011;18726;44.732;10.550;2023-05-10T16:20:54;10.20;;;9.30;;
32236;SDS011;18726;44.732;10.550;2023-05-10T16:23:58;11.63;;;9.07;;
32236;SDS011;18726;44.732;10.550;2023-05-10T16:27:02;10.35;;;8.30;;
32236;SDS011;18726;44.732;10.550;2023-05-10T16:30:05;11.18;;;9.00;;
32236;SDS011;18726;44.732;10.550;2023-05-10T16:33:10;10.85;;;9.82;;
32236;SDS011;18726;44.732;10.550;2023-05-10T16:40:24;9.38;;;8.50;;
32236;SDS011;18726;44.732;10.550;2023-05-10T16:43:28;12.00;;;8.48;;
32236;SDS011;18726;44.732;10.550;2023-05-10T16:46:32;10.27;;;9.15;;
32236;SDS011;18726;44.732;10.550;2023-05-10T16:49:36;8.00;;;7.30;;
32236;SDS011;18726;44.732;10.550;2023-05-10T16:52:39;8.35;;;7.55;;
32236;SDS011;18726;44.732;10.550;2023-05-10T16:55:43;8.98;;;8.10;;
32236;SDS011;18726;44.732;10.550;2023-05-10T16:58:47;7.95;;;7.25;;
32236;SDS011;18726;44.732;10.550;2023-05-10T17:01:53;9.13;;;7.93;;
32236;SDS011;18726;44.732;10.550;2023-05-10T17:04:57;9.60;;;8.20;;
32236;SDS011;18726;44.732;10.550;2023-05-10T17:08:01;8.68;;;7.70;;
32236;SDS011;18726;44.732;10.550;2023-05-10T17:11:04;8.95;;;7.43;;
32236;SDS011;18726;44.732;10.550;2023-05-10T17:14:08;10.52;;;8.23;;
32236;SDS011;18726;44.732;10.550;2023-05-10T17:17:12;9.88;;;8.48;;
32236;SDS011;18726;44.732;10.550;2023-05-10T17:20:15;9.05;;;8.15;;
32236;SDS011;18726;44.732;10.550;2023-05-10T17:23:19;9.07;;;8.18;;
32236;SDS011;18726;44.732;10.550;2023-05-10T17:26:23;10.57;;;9.57;;
32236;SDS011;18726;44.732;10.550;2023-05-10T17:29:29;9.27;;;8.38;;
32236;SDS011;18726;44.732;10.550;2023-05-10T17:32:34;14.02;;;9.80;;
32236;SDS011;18726;44.732;10.550;2023-05-10T17:35:37;11.32;;;10.18;;
32236;SDS011;18726;44.732;10.550;2023-05-10T17:38:41;11.02;;;9.05;;
32236;SDS011;18726;44.732;10.550;2023-05-10T17:41:45;10.20;;;9.20;;
32236;SDS011;18726;44.732;10.550;2023-05-10T17:44:49;11.05;;;9.85;;
32236;SDS011;18726;44.732;10.550;2023-05-10T17:47:52;12.93;;;10.00;;
32236;SDS011;18726;44.732;10.550;2023-05-10T17:50:56;10.20;;;9.25;;
32236;SDS011;18726;44.732;10.550;2023-05-10T17:54:00;13.77;;;9.77;;
32236;SDS011;18726;44.732;10.550;2023-05-10T17:57:03;11.45;;;10.30;;
32236;SDS011;18726;44.732;10.550;2023-05-10T18:00:07;10.80;;;9.70;;
32236;SDS011;18726;44.732;10.550;2023-05-10T18:03:11;12.70;;;11.45;;
32236;SDS011;18726;44.732;10.550;2023-05-10T18:06:15;14.35;;;10.38;;
32236;SDS011;18726;44.732;10.550;2023-05-10T18:09:19;10.98;;;9.98;;
32236;SDS011;18726;44.732;10.550;2023-05-10T18:12:23;12.65;;;10.50;;
32236;SDS011;18726;44.732;10.550;2023-05-10T18:15:27;12.82;;;11.63;;
32236;SDS011;18726;44.732;10.550;2023-05-10T18:18:31;12.35;;;11.15;;
32236;SDS011;18726;44.732;10.550;2023-05-10T18:21:34;10.32;;;9.43;;
32236;SDS011;18726;44.732;10.550;2023-05-10T18:24:38;12.88;;;11.68;;
32236;SDS011;18726;44.732;10.550;2023-05-10T18:27:42;10.77;;;9.65;;
32236;SDS011;18726;44.732;10.550;2023-05-10T18:30:45;11.70;;;10.50;;